• Join FlightAware (Why Join?)
  • Login
  • US Flag 
12:20AM EST


 

Airport Tracker/Info


-or-


 

Live Flight TrackerFlight Track Log ✈ AAL228 ✈ 08-Mar-2014 ✈ KDFW - KCMH

Flight Track Log - Related Links

Times and Time Zones

All times are in EST time to prevent confusion due to time zone crossing. See the AAL228 flight status page for this flight to view local times or setup timezone preferences in your user account.

Time Position Orientation Groundspeed Altitude Reporting Facility
EST Latitude Longitude Course Direction KTS MPH feet Rate Location/Type
04:55PM 33.1501 -96.6211 54° Northeast  Level Estimated
04:56PM 33.2342 -96.4816 54° Northeast  Level Estimated
04:57PM 33.3182 -96.3419 54° Northeast  Level Estimated
04:58PM 33.4020 -96.2018 54° Northeast  Level Estimated
04:59PM 33.4856 -96.0615 54° Northeast  Level Estimated
05:00PM 33.5691 -95.9209 54° Northeast  Level Estimated
05:01PM 33.6524 -95.7801 55° Northeast  Level Estimated
05:02PM 33.7356 -95.6390 55° Northeast  Level Estimated
05:03PM 33.8186 -95.4976 55° Northeast  Level Estimated
05:04PM 33.9014 -95.3559 55° Northeast  Level Estimated
05:05PM 33.9841 -95.2140 55° Northeast  Level Estimated
05:06PM 34.0666 -95.0717 55° Northeast  Level Estimated
05:07PM 34.1489 -94.9293 55° Northeast  Level Estimated
05:08PM 34.2311 -94.7865 55° Northeast  Level Estimated
05:09PM 34.3132 -94.6434 55° Northeast  Level Estimated
05:10PM 34.3950 -94.5001 55° Northeast  Level Estimated
05:11PM 34.4767 -94.3565 55° Northeast  Level Estimated
05:12PM 34.5582 -94.2126 55° Northeast  Level Estimated
05:13PM 34.6396 -94.0684 56° Northeast  Level Estimated
05:14PM 34.7207 -93.9240 56° Northeast  Level Estimated
05:15PM 34.8018 -93.7792 56° Northeast  Level Estimated
05:16PM 34.8826 -93.6342 56° Northeast  Level Estimated
05:17PM 34.9632 -93.4889 56° Northeast  Level Estimated
05:18PM 35.0437 -93.3433 56° Northeast  Level Estimated
05:19PM 35.1241 -93.1974 56° Northeast  Level Estimated
05:20PM 35.2042 -93.0512 56° Northeast  Level Estimated
05:21PM 35.2842 -92.9048 56° Northeast  Level Estimated
05:22PM 35.3639 -92.7580 56° Northeast  Level Estimated
05:23PM 35.4436 -92.6110 56° Northeast  Level Estimated
05:24PM 35.5230 -92.4636 56° Northeast  Level Estimated
05:25PM 35.6022 -92.3160 57° Northeast  Level Estimated
05:26PM 35.6813 -92.1681 57° Northeast  Level Estimated
05:27PM 35.7602 -92.0199 57° Northeast  Level Estimated
05:28PM 35.8389 -91.8714 57° Northeast  Level Estimated
05:29PM 35.9174 -91.7226 57° Northeast  Level Estimated
05:30PM 35.9958 -91.5735 57° Northeast  Level Estimated
05:31PM 36.0739 -91.4241 57° Northeast  Level Estimated
05:32PM 36.1519 -91.2744 57° Northeast  Level Estimated
05:33PM 36.2297 -91.1245 57° Northeast  Level Estimated
05:34PM 36.3073 -90.9742 57° Northeast  Level Estimated
05:35PM 36.3847 -90.8236 57° Northeast  Level Estimated
05:36PM 36.4619 -90.6727 57° Northeast  Level Estimated
05:37PM 36.5389 -90.5215 58° Northeast  Level Estimated
05:38PM 36.6158 -90.3700 58° Northeast  Level Estimated
05:39PM 36.6924 -90.2183 58° Northeast  Level Estimated
05:40PM 36.7689 -90.0662 58° Northeast  Level Estimated
05:41PM 36.8451 -89.9138 58° Northeast  Level Estimated
05:42PM 36.9212 -89.7611 58° Northeast  Level Estimated
05:43PM 36.9971 -89.6081 58° Northeast  Level Estimated
05:44PM 37.0727 -89.4548 58° Northeast  Level Estimated
05:45PM 37.1482 -89.3012 58° Northeast  Level Estimated
05:46PM 37.2235 -89.1473 58° Northeast  Level Estimated
05:47PM 37.2985 -88.9931 59° Northeast  Level Estimated
05:48PM 37.3734 -88.8385 59° Northeast  Level Estimated
05:49PM 37.4481 -88.6837 59° Northeast  Level Estimated
05:50PM 37.5226 -88.5285 59° Northeast  Level Estimated
05:51PM 37.5968 -88.3731 59° Northeast  Level Estimated
05:52PM 37.6709 -88.2173 59° Northeast  Level Estimated
05:53PM 37.7448 -88.0612 59° Northeast  Level Estimated
05:54PM 37.8184 -87.9048 59° Northeast  Level Estimated
05:55PM 37.8918 -87.7482 59° Northeast  Level Estimated
05:56PM 37.9651 -87.5911 59° Northeast  Level Estimated
05:57PM 38.0381 -87.4338 59° Northeast  Level Estimated
05:58PM 38.1109 -87.2762 60° Northeast  Level Estimated
05:59PM 38.1835 -87.1182 60° Northeast  Level Estimated
06:00PM 38.2559 -86.9600 60° Northeast  Level Estimated
06:01PM 38.3281 -86.8014 60° Northeast  Level Estimated
06:02PM 38.4001 -86.6425 60° Northeast  Level Estimated
06:03PM 38.4718 -86.4833 60° Northeast  Level Estimated
06:04PM 38.5434 -86.3237 60° Northeast  Level Estimated
06:05PM 38.6147 -86.1639 60° Northeast  Level Estimated
06:06PM 38.6858 -86.0037 60° Northeast  Level Estimated
06:07PM 38.7567 -85.8432 60° Northeast  Level Estimated
06:08PM 38.8273 -85.6824 61° Northeast  Level Estimated
06:09PM 38.8978 -85.5213 61° Northeast  Level Estimated
06:10PM 38.9680 -85.3598 61° Northeast  Level Estimated
06:11PM 39.0380 -85.1981 61° Northeast  Level Estimated
06:12PM 39.1077 -85.0360 61° Northeast  Level Estimated
06:13PM 39.1773 -84.8736 61° Northeast  Level Estimated
06:14PM 39.2466 -84.7109 61° Northeast  Level Estimated
06:15PM 39.3157 -84.5478 61° Northeast  Level Estimated
06:16PM 39.3846 -84.3845 61° Northeast  Level Estimated
06:17PM 39.4532 -84.2208 61° Northeast  Level Estimated
06:18PM 39.5216 -84.0568 62° Northeast  Level Estimated
06:19PM 39.5898 -83.8924 62° Northeast  Level Estimated
06:20PM 39.6577 -83.7278 62° Northeast  Level Estimated
06:21PM 39.7255 -83.5628 62° Northeast  Level Estimated
06:22PM 39.7929 -83.3975 62° Northeast  Level Estimated
06:23PM 39.8602 -83.2318 62° Northeast  Level Estimated
06:24PM 39.9272 -83.0659 62° Northeast  Level Estimated
06:25PM 39.9940 -82.8996 62° Northeast  Level Estimated
06:26PM 39.9969 -82.8922 62° Northeast  Level Estimated
06:27PM 39.9969 -82.8922 North  Level Estimated
06:28PM 39.9969 -82.8922 North  Level Estimated
06:29PM 39.9969 -82.8922 North  Level Estimated
06:30PM 39.9969 -82.8922 North  Level Estimated
06:31PM 39.9969 -82.8922 North  Level Estimated
06:32PM 39.9969 -82.8922 North  Level Estimated
06:33PM 39.9969 -82.8922 North  Level Estimated
06:34PM 39.9969 -82.8922 North  Level Estimated
06:35PM 39.9969 -82.8922 North  Level Estimated
06:36PM 39.9969 -82.8922 North  Level Estimated
06:37PM 39.9969 -82.8922 North  Level Estimated
06:38PM 39.9969 -82.8922 North  Level Estimated
06:39PM 39.9969 -82.8922 North  Level Estimated
06:40PM 39.9969 -82.8922 North  Level Estimated
06:41PM 39.9969 -82.8922 North  Level Estimated
06:42PM 39.9969 -82.8922 North  Level Estimated